Time;durP1;ratioP1;P1;durP2;ratioP2;P2;SDS_P1;SDS_P2;PMS_P1;PMS_P2;Temp;Humidity;BMP_temperature;BMP_pressure;BME280_temperature;BME280_humidity;BME280_pressure;Samples;Min_cycle;Max_cycle;Signal;HPM_P1;HPM_P2
2021/08/03 01:36:01;;;;;;;8.85;4.25;;;20.80;91.60;;;;;;6242515;23;20081;-50
2021/08/03 01:38:30;;;;;;;5.88;4.05;;;20.00;92.80;;;;;;6243850;23;20016;-49
2021/08/03 01:41:01;;;;;;;7.35;3.97;;;19.90;94.20;;;;;;6246432;22;20028;-49
2021/08/03 01:43:28;;;;;;;7.30;3.75;;;20.80;93.50;;;;;;6244080;23;20445;-49
2021/08/03 01:45:56;;;;;;;4.60;4.10;;;20.30;93.10;;;;;;6246758;22;20027;-49
2021/08/03 01:48:24;;;;;;;4.57;3.90;;;20.50;92.30;;;;;;6245905;22;20015;-51
2021/08/03 01:50:53;;;;;;;7.30;4.00;;;20.70;91.90;;;;;;6246444;22;20484;-50
2021/08/03 01:53:22;;;;;;;5.82;4.00;;;20.70;91.90;;;;;;6246608;22;20305;-50
2021/08/03 01:55:48;;;;;;;5.65;3.60;;;20.20;92.70;;;;;;6246193;22;20008;-51
2021/08/03 01:58:15;;;;;;;6.47;4.55;;;19.80;93.30;;;;;;6246229;23;20305;-50
2021/08/03 02:00:43;;;;;;;6.63;4.07;;;19.80;93.60;;;;;;6246140;22;20024;-50
2021/08/03 02:03:11;;;;;;;6.18;3.58;;;19.90;93.50;;;;;;6193011;23;20031;-51
2021/08/03 02:05:39;;;;;;;5.78;3.97;;;20.20;93.10;;;;;;6227298;22;20467;-50
2021/08/03 02:08:07;;;;;;;7.25;4.18;;;20.50;92.80;;;;;;6216271;23;20009;-50
2021/08/03 02:10:34;;;;;;;5.50;3.95;;;20.80;92.20;;;;;;6216046;23;20005;-50
2021/08/03 02:13:05;;;;;;;7.25;4.07;;;21.00;91.70;;;;;;6215888;23;20015;-50
2021/08/03 02:15:31;;;;;;;5.63;3.70;;;21.10;91.50;;;;;;6215904;23;20212;-51
2021/08/03 02:17:57;;;;;;;5.13;4.03;;;21.20;93.50;;;;;;6217533;23;20012;-51
2021/08/03 02:20:23;;;;;;;5.57;4.20;;;21.30;95.10;;;;;;6217718;23;20096;-50
2021/08/03 02:22:49;;;;;;;7.53;3.80;;;21.40;94.70;;;;;;6216512;23;20044;-50
2021/08/03 02:25:15;;;;;;;5.75;3.75;;;21.40;94.70;;;;;;6217213;23;20014;-51
2021/08/03 02:27:41;;;;;;;4.30;3.58;;;21.50;94.00;;;;;;6217178;23;20016;-50
2021/08/03 02:30:09;;;;;;;3.55;3.20;;;21.60;92.40;;;;;;6216957;23;20005;-50
2021/08/03 02:32:46;;;;;;;4.68;3.80;;;21.50;91.80;;;;;;6164300;23;20083;-51
2021/08/03 02:35:38;;;;;;;5.93;4.28;;;21.50;90.90;;;;;;6217527;23;20008;-51
2021/08/03 02:38:07;;;;;;;8.05;4.90;;;21.50;90.90;;;;;;6164634;23;20043;-51
2021/08/03 02:40:33;;;;;;;6.85;4.90;;;21.20;91.20;;;;;;6217123;23;20005;-51
2021/08/03 02:43:01;;;;;;;10.05;5.25;;;21.30;91.20;;;;;;6217541;23;20019;-51
2021/08/03 02:45:29;;;;;;;11.35;6.00;;;21.30;91.00;;;;;;6217905;23;20008;-51
2021/08/03 02:47:59;;;;;;;9.25;6.32;;;21.40;91.00;;;;;;6217296;23;20008;-50
2021/08/03 02:50:29;;;;;;;9.00;7.22;;;21.10;91.20;;;;;;6217313;23;20527;-50
2021/08/03 02:53:03;;;;;;;11.18;6.40;;;21.10;91.60;;;;;;6164901;23;20028;-51
2021/08/03 02:55:41;;;;;;;7.20;5.78;;;20.90;91.50;;;;;;6217010;23;20028;-51
2021/08/03 02:58:16;;;;;;;7.68;6.45;;;20.80;91.50;;;;;;6217592;23;20302;-51
2021/08/03 03:00:42;;;;;;;8.82;5.38;;;20.70;91.60;;;;;;6190318;23;20462;-51
2021/08/03 03:03:14;;;;;;;6.45;4.28;;;20.60;91.70;;;;;;6217448;23;20009;-50
2021/08/03 03:05:41;;;;;;;;;;;20.60;91.80;;;;;;6217767;23;20063;-50
2021/08/03 03:08:11;;;;;;;10.68;4.82;;;20.80;91.60;;;;;;6217310;23;19903;-50
2021/08/03 03:10:43;;;;;;;8.27;5.25;;;21.00;91.30;;;;;;6217157;23;20015;-50
2021/08/03 03:13:18;;;;;;;7.00;4.47;;;21.40;91.20;;;;;;6216479;23;20016;-51
2021/08/03 03:15:45;;;;;;;12.77;5.43;;;21.20;90.90;;;;;;6216375;23;20433;-51
2021/08/03 03:18:12;;;;;;;7.40;6.10;;;21.30;90.80;;;;;;6216412;23;20023;-50
2021/08/03 03:20:41;;;;;;;9.30;5.63;;;21.40;90.60;;;;;;6216916;23;20012;-50
2021/08/03 03:23:08;;;;;;;9.10;5.32;;;21.50;90.60;;;;;;6217141;23;20047;-51
2021/08/03 03:25:34;;;;;;;8.93;5.57;;;21.50;90.50;;;;;;6217021;23;20013;-50
2021/08/03 03:28:04;;;;;;;8.90;5.60;;;21.50;90.40;;;;;;6217111;23;20008;-50
2021/08/03 03:30:31;;;;;;;7.57;5.43;;;21.50;90.30;;;;;;6217106;23;20012;-50
2021/08/03 03:33:02;;;;;;;7.88;5.10;;;21.50;90.30;;;;;;6217243;23;20008;-50
2021/08/03 03:35:30;;;;;;;9.13;4.85;;;21.50;90.20;;;;;;6217446;23;20440;-50
2021/08/03 03:37:57;;;;;;;9.73;5.05;;;21.60;90.20;;;;;;6216335;23;20055;-50
2021/08/03 03:40:24;;;;;;;13.32;4.97;;;21.60;90.10;;;;;;6216769;23;20364;-51
2021/08/03 03:42:52;;;;;;;8.07;4.70;;;21.50;90.00;;;;;;6217094;23;20022;-50
2021/08/03 03:45:18;;;;;;;6.15;5.15;;;21.50;90.10;;;;;;6215538;23;20357;-50
2021/08/03 03:47:58;;;;;;;12.98;4.93;;;21.50;90.00;;;;;;6164188;23;20071;-50
2021/08/03 03:50:48;;;;;;;7.35;4.13;;;21.40;90.00;;;;;;6163878;23;20059;-49
2021/08/03 03:53:20;;;;;;;8.55;4.65;;;21.30;89.90;;;;;;6129039;23;20009;-49
2021/08/03 03:55:54;;;;;;;9.93;4.22;;;21.30;90.00;;;;;;6150382;23;20064;-50
2021/08/03 03:58:21;;;;;;;11.63;4.47;;;21.20;90.00;;;;;;6153904;23;20021;-50
2021/08/03 04:00:48;;;;;;;12.98;5.53;;;21.20;90.00;;;;;;6153761;23;20487;-50
2021/08/03 04:03:18;;;;;;;12.60;5.10;;;21.20;89.90;;;;;;6153853;23;20041;-50
2021/08/03 04:05:46;;;;;;;13.60;5.20;;;21.20;90.00;;;;;;6129103;23;20092;-49
2021/08/03 04:08:12;;;;;;;8.15;4.90;;;21.10;90.00;;;;;;6154156;23;20052;-49
2021/08/03 04:10:38;;;;;;;7.45;5.28;;;21.10;90.00;;;;;;6009711;23;20013;-49
2021/08/03 04:13:05;;;;;;;7.28;5.10;;;21.10;90.00;;;;;;6153978;23;20006;-49
2021/08/03 04:15:34;;;;;;;10.50;5.63;;;21.10;90.20;;;;;;6153436;23;20045;-50
2021/08/03 04:18:00;;;;;;;9.35;4.97;;;21.20;90.30;;;;;;6104244;23;20385;-50
2021/08/03 04:20:26;;;;;;;5.40;4.88;;;21.30;90.30;;;;;;6032652;23;20136;-50
2021/08/03 04:22:53;;;;;;;10.60;5.65;;;21.30;90.20;;;;;;6153867;23;20429;-49
2021/08/03 04:25:19;;;;;;;10.32;5.47;;;21.40;90.20;;;;;;6213266;23;20019;-50
2021/08/03 04:27:45;;;;;;;7.03;5.28;;;21.50;90.20;;;;;;6216502;23;20072;-49
2021/08/03 04:30:14;;;;;;;12.85;6.82;;;21.60;90.20;;;;;;6216246;23;20058;-49
2021/08/03 04:32:41;;;;;;;8.95;5.38;;;21.60;90.20;;;;;;6216180;23;20004;-49
2021/08/03 04:35:08;;;;;;;9.98;5.50;;;21.70;90.20;;;;;;6163884;23;20440;-50
2021/08/03 04:37:41;;;;;;;8.25;5.47;;;21.60;90.40;;;;;;6215639;23;20013;-49
2021/08/03 04:40:08;;;;;;;16.23;6.25;;;21.70;90.30;;;;;;6215288;23;20012;-50
2021/08/03 04:42:34;;;;;;;12.00;5.85;;;21.70;90.40;;;;;;6187971;23;20004;-50
2021/08/03 04:45:00;;;;;;;9.02;5.63;;;21.60;90.50;;;;;;6215826;23;20016;-50
2021/08/03 04:47:26;;;;;;;7.80;6.00;;;21.70;90.60;;;;;;6216340;23;20005;-50
2021/08/03 04:49:52;;;;;;;10.25;6.50;;;21.80;90.70;;;;;;6216876;23;20013;-50
2021/08/03 04:52:18;;;;;;;8.85;7.60;;;21.90;90.80;;;;;;6215353;23;20378;-50
2021/08/03 04:54:43;;;;;;;6.43;5.63;;;21.90;90.60;;;;;;6213556;23;20012;-49
2021/08/03 04:57:09;;;;;;;6.90;5.63;;;21.90;90.80;;;;;;6216363;23;20083;-50
2021/08/03 04:59:36;;;;;;;106.82;15.10;;;22.00;90.90;;;;;;6187586;23;20009;-49
2021/08/03 05:02:02;;;;;;;12.05;6.90;;;21.90;91.40;;;;;;6215537;23;20130;-49
2021/08/03 05:04:30;;;;;;;9.32;6.85;;;22.00;91.10;;;;;;6187848;23;20036;-50
2021/08/03 05:06:56;;;;;;;12.35;7.28;;;22.20;91.10;;;;;;6215970;23;20083;-50
2021/08/03 05:09:22;;;;;;;9.00;7.75;;;22.20;91.00;;;;;;6163245;23;20031;-50
2021/08/03 05:11:47;;;;;;;11.00;6.30;;;22.30;91.00;;;;;;6215738;23;20008;-50
2021/08/03 05:14:13;;;;;;;7.28;6.35;;;22.30;90.90;;;;;;6216063;23;20032;-50
2021/08/03 05:16:39;;;;;;;9.25;6.35;;;22.30;91.30;;;;;;6215273;23;20085;-50
2021/08/03 05:19:04;;;;;;;10.25;6.57;;;22.30;91.10;;;;;;6215804;23;20013;-50
2021/08/03 05:21:30;;;;;;;11.85;8.38;;;22.30;91.20;;;;;;6215169;23;20441;-50
2021/08/03 05:23:56;;;;;;;10.00;7.70;;;22.30;91.40;;;;;;6215510;23;20063;-50
2021/08/03 05:26:22;;;;;;;11.38;8.35;;;22.40;91.40;;;;;;6215283;23;20429;-49
2021/08/03 05:28:48;;;;;;;9.40;7.78;;;22.40;91.60;;;;;;6216414;23;20417;-49
2021/08/03 05:31:13;;;;;;;9.77;7.90;;;22.30;91.60;;;;;;6215777;23;20023;-49
2021/08/03 05:33:40;;;;;;;11.68;9.80;;;22.50;91.70;;;;;;6215340;23;20008;-49
2021/08/03 05:36:07;;;;;;;9.82;8.02;;;22.60;91.60;;;;;;6215246;23;20091;-49
2021/08/03 05:38:33;;;;;;;12.63;8.32;;;22.70;91.30;;;;;;6214220;23;20022;-49
2021/08/03 05:40:58;;;;;;;14.90;9.10;;;22.70;91.20;;;;;;6187934;23;20083;-50
2021/08/03 05:43:24;;;;;;;12.25;8.25;;;22.90;90.90;;;;;;6216231;23;20425;-50
2021/08/03 05:45:50;;;;;;;12.40;8.98;;;22.90;91.00;;;;;;6188246;23;20312;-49
2021/08/03 05:48:16;;;;;;;13.10;7.80;;;22.90;91.10;;;;;;6215775;23;20357;-49
2021/08/03 05:50:42;;;;;;;11.25;7.28;;;23.20;91.00;;;;;;6217118;23;20008;-50
2021/08/03 05:53:07;;;;;;;9.98;6.43;;;23.40;91.30;;;;;;6217732;23;20008;-50
2021/08/03 05:55:33;;;;;;;10.73;7.20;;;23.30;90.00;;;;;;6217962;23;20290;-50
2021/08/03 05:57:59;;;;;;;11.05;7.28;;;23.40;90.00;;;;;;6218151;23;20016;-49
2021/08/03 06:00:25;;;;;;;12.27;6.97;;;23.40;89.50;;;;;;6217677;23;20416;-50
2021/08/03 06:02:51;;;;;;;10.65;6.53;;;23.50;89.50;;;;;;6141194;23;20318;-49
2021/08/03 06:05:16;;;;;;;12.13;6.65;;;23.50;89.30;;;;;;6218513;23;20030;-50
2021/08/03 06:07:48;;;;;;;9.75;6.55;;;23.60;88.50;;;;;;6165167;23;20032;-49
2021/08/03 06:10:15;;;;;;;9.10;6.80;;;23.80;88.10;;;;;;6217982;23;20040;-49
2021/08/03 06:12:47;;;;;;;12.70;7.13;;;23.80;87.00;;;;;;6218174;23;20396;-49
2021/08/03 06:15:14;;;;;;;11.27;6.75;;;23.80;87.40;;;;;;6217302;23;20019;-49
2021/08/03 06:17:43;;;;;;;11.25;6.75;;;24.00;86.90;;;;;;6217116;23;20027;-49
2021/08/03 06:20:10;;;;;;;9.93;6.25;;;24.10;88.00;;;;;;6217572;23;20483;-49
2021/08/03 06:22:38;;;;;;;11.05;7.15;;;24.20;87.20;;;;;;6164319;23;20011;-49
2021/08/03 06:25:06;;;;;;;7.32;6.18;;;24.30;86.80;;;;;;6217680;23;20428;-49
2021/08/03 06:27:32;;;;;;;10.98;7.55;;;24.50;85.60;;;;;;6218067;23;20054;-50
2021/08/03 06:30:04;;;;;;;9.20;6.78;;;24.70;84.80;;;;;;6217238;23;20042;-49
2021/08/03 06:32:30;;;;;;;18.15;6.80;;;24.80;84.60;;;;;;6217710;23;20012;-49
2021/08/03 06:34:56;;;;;;;10.77;7.93;;;24.80;84.20;;;;;;6163226;23;20009;-50
2021/08/03 06:37:22;;;;;;;12.48;7.80;;;24.90;83.80;;;;;;6216270;23;20051;-50
2021/08/03 06:39:48;;;;;;;10.27;6.72;;;25.20;83.00;;;;;;6217443;23;20004;-49
2021/08/03 06:42:38;;;;;;;11.55;8.73;;;25.20;81.20;;;;;;6217146;23;20008;-50
2021/08/03 06:45:18;;;;;;;9.25;7.68;;;25.00;82.00;;;;;;6216515;23;20537;-50
2021/08/03 06:47:50;;;;;;;11.18;7.78;;;25.00;82.70;;;;;;6192441;23;20012;-50
2021/08/03 06:50:18;;;;;;;9.63;8.35;;;25.20;82.50;;;;;;6217390;23;20008;-50
2021/08/03 06:52:45;;;;;;;9.82;7.80;;;25.40;81.70;;;;;;6217112;23;20054;-49
2021/08/03 06:55:13;;;;;;;11.13;7.93;;;25.60;81.20;;;;;;6216917;23;20028;-49
2021/08/03 06:57:51;;;;;;;13.93;7.82;;;25.70;81.10;;;;;;6217007;23;20020;-49
2021/08/03 07:00:19;;;;;;;10.45;8.05;;;25.90;81.00;;;;;;6217190;23;20039;-55
2021/08/03 07:02:46;;;;;;;13.32;8.90;;;26.00;80.40;;;;;;6217063;23;20012;-51
2021/08/03 07:05:19;;;;;;;11.05;8.13;;;26.20;79.70;;;;;;6217158;23;20066;-51
2021/08/03 07:07:45;;;;;;;12.05;8.63;;;26.20;78.80;;;;;;6217244;23;20058;-51
2021/08/03 07:10:13;;;;;;;9.35;7.93;;;26.40;79.10;;;;;;6217290;23;20329;-51
2021/08/03 07:12:45;;;;;;;10.90;7.53;;;26.50;79.00;;;;;;6217172;23;20011;-51
2021/08/03 07:15:12;;;;;;;9.85;7.63;;;;;;;;;;6217323;23;20503;-51
2021/08/03 07:17:40;;;;;;;10.32;6.00;;;;;;;;;;6190015;23;20009;-51
2021/08/03 07:20:08;;;;;;;10.98;6.53;;;26.80;94.30;;;;;;6216904;23;20020;-50
2021/08/03 07:22:36;;;;;;;8.63;5.82;;;;;;;;;;6190756;23;20092;-51
2021/08/03 07:25:03;;;;;;;10.23;5.22;;;;;;;;;;6217120;23;20091;-51
2021/08/03 07:27:29;;;;;;;11.82;5.90;;;27.20;74.30;;;;;;6217005;23;20016;-51
2021/08/03 07:29:54;;;;;;;17.27;6.85;;;27.50;73.90;;;;;;6217396;23;20520;-51
2021/08/03 07:32:20;;;;;;;9.02;4.20;;;27.60;72.00;;;;;;6217600;23;20063;-50
2021/08/03 07:34:46;;;;;;;7.50;4.78;;;27.20;72.30;;;;;;6164436;23;20008;-51
2021/08/03 07:37:12;;;;;;;6.35;4.85;;;26.90;73.70;;;;;;6216578;23;20071;-51
2021/08/03 07:39:39;;;;;;;7.00;4.13;;;27.40;74.20;;;;;;6216987;23;20009;-51
2021/08/03 07:42:06;;;;;;;6.22;4.38;;;27.40;72.90;;;;;;6217590;23;20015;-51
2021/08/03 07:44:32;;;;;;;5.13;3.38;;;27.70;72.30;;;;;;6164516;23;20012;-51
2021/08/03 07:46:58;;;;;;;10.73;4.05;;;27.70;70.90;;;;;;6217417;23;20486;-50
2021/08/03 07:49:24;;;;;;;6.13;4.13;;;28.00;71.30;;;;;;6189425;23;20325;-51
2021/08/03 07:51:52;;;;;;;7.30;4.07;;;28.00;70.10;;;;;;6189307;23;20013;-50
2021/08/03 07:54:18;;;;;;;7.85;4.43;;;;;;;;;;6217274;23;20005;-51
2021/08/03 07:56:44;;;;;;;6.78;3.95;;;28.30;70.10;;;;;;6217196;23;20420;-50
2021/08/03 07:59:10;;;;;;;5.72;4.10;;;28.00;69.80;;;;;;6217003;23;20016;-51
2021/08/03 08:01:36;;;;;;;6.85;3.78;;;27.90;69.80;;;;;;6217430;23;20008;-51
2021/08/03 08:04:02;;;;;;;6.55;3.83;;;27.70;71.70;;;;;;6217135;23;20078;-50
2021/08/03 08:06:28;;;;;;;6.43;3.95;;;27.70;82.50;;;;;;6216763;23;20005;-52
2021/08/03 08:08:54;;;;;;;5.78;3.50;;;;;;;;;;6216778;23;20004;-51
2021/08/03 08:11:20;;;;;;;4.97;3.85;;;28.30;69.30;;;;;;6217076;23;20000;-50
2021/08/03 08:13:46;;;;;;;12.43;4.40;;;;;;;;;;6216863;23;20015;-50
2021/08/03 08:16:12;;;;;;;11.85;4.13;;;29.00;68.30;;;;;;6189412;23;20008;-51
2021/08/03 08:18:38;;;;;;;9.27;3.80;;;29.10;68.80;;;;;;6216698;23;20009;-51
2021/08/03 08:21:04;;;;;;;4.53;3.15;;;29.40;67.80;;;;;;6164152;23;20482;-51
2021/08/03 08:23:29;;;;;;;15.63;4.60;;;28.90;68.00;;;;;;6216963;23;20009;-51
2021/08/03 08:25:58;;;;;;;6.28;2.92;;;29.30;67.50;;;;;;6216849;23;20028;-51
2021/08/03 08:28:24;;;;;;;4.95;3.00;;;29.40;66.60;;;;;;6216339;23;20012;-51
2021/08/03 08:30:50;;;;;;;15.68;2.88;;;29.50;65.00;;;;;;6216818;23;20009;-51
2021/08/03 08:33:16;;;;;;;7.13;2.67;;;29.80;66.10;;;;;;6216702;23;20055;-51
2021/08/03 08:35:42;;;;;;;4.40;2.83;;;30.00;66.00;;;;;;6188761;23;20008;-51
2021/08/03 08:38:08;;;;;;;5.13;2.45;;;30.30;64.40;;;;;;6215823;23;20008;-51
2021/08/03 08:40:34;;;;;;;4.68;2.80;;;30.10;63.60;;;;;;6189110;23;20079;-51
2021/08/03 08:43:00;;;;;;;6.53;2.33;;;30.50;64.50;;;;;;6216469;23;20418;-51
2021/08/03 08:45:26;;;;;;;4.00;2.58;;;30.70;63.40;;;;;;6189482;23;20020;-51
2021/08/03 08:47:52;;;;;;;5.38;2.47;;;30.60;62.80;;;;;;6164137;23;20040;-51
2021/08/03 08:50:21;;;;;;;4.82;2.55;;;30.50;63.30;;;;;;6216505;23;20051;-51
2021/08/03 08:52:50;;;;;;;7.43;2.90;;;30.80;67.50;;;;;;6216740;23;20001;-51
2021/08/03 08:55:17;;;;;;;4.47;2.40;;;30.90;68.10;;;;;;6216413;23;20451;-51
2021/08/03 08:57:42;;;;;;;4.10;2.35;;;30.80;68.40;;;;;;6215933;23;20079;-51
2021/08/03 09:00:09;;;;;;;4.47;2.30;;;30.60;68.00;;;;;;6216917;23;20043;-51
2021/08/03 09:02:47;;;;;;;6.55;2.40;;;30.40;82.20;;;;;;6164292;23;20013;-52
2021/08/03 09:05:17;;;;;;;5.13;2.47;;;30.70;82.10;;;;;;6216338;23;20004;-51
2021/08/03 09:07:47;;;;;;;4.35;2.40;;;31.10;67.30;;;;;;6216571;23;20027;-51
2021/08/03 09:10:28;;;;;;;3.67;2.53;;;31.40;62.70;;;;;;6216273;23;20001;-51
2021/08/03 09:13:13;;;;;;;;;;;31.40;63.00;;;;;;6216424;23;20000;-51
2021/08/03 09:15:41;;;;;;;4.82;2.75;;;31.70;62.00;;;;;;6214001;23;19900;-51
2021/08/03 09:18:16;;;;;;;5.60;2.90;;;31.70;61.80;;;;;;6216285;23;20491;-51
2021/08/03 09:20:44;;;;;;;6.15;2.67;;;31.80;62.20;;;;;;6188570;23;20040;-51
2021/08/03 09:23:10;;;;;;;4.22;2.65;;;31.80;61.60;;;;;;6216421;23;20013;-51
2021/08/03 09:25:38;;;;;;;5.82;2.92;;;31.60;62.00;;;;;;6188324;23;20055;-51
2021/08/03 09:28:25;;;;;;;5.13;2.72;;;31.10;61.50;;;;;;6216419;23;20070;-51
2021/08/03 09:30:51;;;;;;;8.63;3.80;;;31.60;61.60;;;;;;6158494;23;20028;-51
2021/08/03 09:33:25;;;;;;;4.07;2.90;;;31.90;61.90;;;;;;6183323;23;20291;-51
2021/08/03 09:35:52;;;;;;;5.03;2.72;;;32.20;60.10;;;;;;6183281;23;20361;-51
2021/08/03 09:38:19;;;;;;;4.35;2.95;;;32.60;60.50;;;;;;6183351;23;20013;-51
2021/08/03 09:40:46;;;;;;;9.15;3.55;;;;;;;;;;6182509;23;20361;-51
2021/08/03 09:43:14;;;;;;;6.93;3.38;;;33.30;85.00;;;;;;6133416;23;20005;-51
2021/08/03 09:45:42;;;;;;;12.13;4.70;;;33.00;69.00;;;;;;6183114;23;20016;-51
2021/08/03 09:48:13;;;;;;;8.57;3.00;;;32.70;67.70;;;;;;6182987;23;20006;-50
2021/08/03 09:51:02;;;;;;;4.07;2.67;;;32.60;67.50;;;;;;6133922;23;20012;-51
2021/08/03 09:53:48;;;;;;;3.60;3.03;;;;;;;;;;6133752;23;20013;-51
2021/08/03 09:56:17;;;;;;;5.30;3.00;;;33.20;57.90;;;;;;6182992;23;20032;-51
2021/08/03 09:58:57;;;;;;;5.85;3.22;;;33.00;58.10;;;;;;6133605;23;20013;-51
2021/08/03 10:01:36;;;;;;;7.25;3.10;;;33.40;57.50;;;;;;6193342;23;20036;-51
2021/08/03 10:04:05;;;;;;;4.18;2.60;;;33.00;57.70;;;;;;6188308;23;20051;-51
2021/08/03 10:06:32;;;;;;;3.60;2.80;;;33.10;58.20;;;;;;6216255;23;20027;-51
2021/08/03 10:08:59;;;;;;;7.82;3.10;;;33.10;58.00;;;;;;6216096;23;20001;-51
2021/08/03 10:11:25;;;;;;;3.75;2.85;;;33.50;58.10;;;;;;6163216;23;20004;-51
2021/08/03 10:13:52;;;;;;;4.72;3.10;;;33.80;57.90;;;;;;6215499;23;20001;-51
2021/08/03 10:16:19;;;;;;;10.07;3.10;;;34.00;57.40;;;;;;6187526;23;20010;-51
2021/08/03 10:18:48;;;;;;;3.88;2.70;;;33.70;57.70;;;;;;6215000;23;20448;-51
2021/08/03 10:21:28;;;;;;;4.35;2.58;;;34.00;57.30;;;;;;6215896;23;20437;-51
2021/08/03 10:24:01;;;;;;;4.18;2.72;;;34.30;56.70;;;;;;6215582;23;20013;-51
2021/08/03 10:26:27;;;;;;;5.30;2.47;;;33.70;57.20;;;;;;6214678;23;20479;-51
2021/08/03 10:29:24;;;;;;;3.30;2.53;;;33.80;57.20;;;;;;6215325;23;20008;-48
2021/08/03 10:31:51;;;;;;;5.75;2.55;;;34.30;56.90;;;;;;6215830;23;20012;-49
2021/08/03 10:34:48;;;;;;;8.57;3.60;;;34.10;56.60;;;;;;6215377;23;20629;-49
2021/08/03 10:37:14;;;;;;;4.43;2.42;;;34.30;57.50;;;;;;6215732;23;20499;-49
2021/08/03 10:39:56;;;;;;;6.28;2.65;;;34.30;56.30;;;;;;6165104;23;20004;-51
2021/08/03 10:42:26;;;;;;;5.10;2.80;;;34.50;56.30;;;;;;6164621;23;20016;-52
2021/08/03 10:44:57;;;;;;;4.93;2.42;;;;;;;;;;6217414;23;20007;-49
2021/08/03 10:47:32;;;;;;;3.22;2.20;;;34.70;55.30;;;;;;6189605;23;20011;-50
2021/08/03 10:50:00;;;;;;;9.00;3.50;;;34.60;56.70;;;;;;6217149;23;20047;-51
2021/08/03 10:52:44;;;;;;;6.47;2.90;;;34.70;56.50;;;;;;6217317;23;20007;-50
2021/08/03 10:55:33;;;;;;;5.18;2.50;;;33.60;87.70;;;;;;6216922;23;20008;-49
2021/08/03 10:58:10;;;;;;;6.03;2.67;;;33.50;58.20;;;;;;6154017;23;20465;-51
2021/08/03 11:00:52;;;;;;;10.82;4.35;;;33.50;56.20;;;;;;6154792;23;20076;-51
2021/08/03 11:03:30;;;;;;;6.18;2.92;;;34.20;55.80;;;;;;6130218;23;20033;-52
2021/08/03 11:06:05;;;;;;;7.93;2.95;;;34.00;55.70;;;;;;6155100;23;20040;-51
2021/08/03 11:08:32;;;;;;;6.60;4.30;;;;;;;;;;6154587;23;20005;-51
2021/08/03 11:11:05;;;;;;;6.88;5.65;;;;;;;;;;6154604;23;20006;-52
2021/08/03 11:13:41;;;;;;;10.20;4.03;;;;;;;;;;6154896;23;20445;-51
2021/08/03 11:16:32;;;;;;;9.23;6.25;;;34.80;60.00;;;;;;6154323;23;20013;-52
2021/08/03 11:18:59;;;;;;;4.00;3.08;;;;;;;;;;6153942;23;20017;-51
2021/08/03 11:21:30;;;;;;;6.57;2.70;;;;;;;;;;6080649;23;20024;-51
2021/08/03 11:24:06;;;;;;;5.03;2.75;;;33.60;54.70;;;;;;6154264;23;20032;-51
2021/08/03 11:26:36;;;;;;;5.68;2.80;;;33.90;71.80;;;;;;6153851;23;20010;-50
2021/08/03 11:29:03;;;;;;;4.10;2.20;;;33.90;70.90;;;;;;6129124;23;20033;-51
2021/08/03 11:31:50;;;;;;;3.60;2.55;;;34.40;69.80;;;;;;6154305;23;20016;-53
2021/08/03 11:34:19;;;;;;;5.15;2.42;;;34.30;70.80;;;;;;6165524;23;20011;-51
2021/08/03 11:37:07;;;;;;;4.43;2.47;;;34.70;71.70;;;;;;6215971;23;20027;-52
2021/08/03 11:39:36;;;;;;;6.53;2.30;;;;;;;;;;6158471;23;20016;-51
2021/08/03 11:42:04;;;;;;;4.65;2.30;;;35.60;52.50;;;;;;6159398;23;20016;-51
2021/08/03 11:44:29;;;;;;;4.45;2.60;;;35.70;53.00;;;;;;6184622;23;20004;-51
2021/08/03 11:47:01;;;;;;;4.25;2.25;;;36.10;53.70;;;;;;6184002;23;20499;-52
2021/08/03 11:49:27;;;;;;;;;;;36.10;53.10;;;;;;6184600;23;20035;-51
2021/08/03 11:52:03;;;;;;;5.65;2.38;;;35.60;53.20;;;;;;6184351;23;19900;-51
2021/08/03 11:54:29;;;;;;;3.88;2.42;;;35.60;53.90;;;;;;6183196;23;20028;-51
2021/08/03 11:56:54;;;;;;;4.35;2.40;;;34.70;54.40;;;;;;6183753;23;20032;-51
2021/08/03 11:59:29;;;;;;;5.68;2.78;;;35.20;54.70;;;;;;6184114;23;20088;-51
2021/08/03 12:01:55;;;;;;;5.88;2.58;;;35.60;54.10;;;;;;6184274;23;20012;-51
2021/08/03 12:04:22;;;;;;;5.20;2.28;;;35.40;53.20;;;;;;6184411;23;20009;-51
2021/08/03 12:06:50;;;;;;;6.70;2.20;;;35.60;53.20;;;;;;6184474;23;20032;-52
2021/08/03 12:09:17;;;;;;;5.38;2.47;;;35.10;53.80;;;;;;6183891;23;20014;-51
2021/08/03 12:11:44;;;;;;;6.57;2.85;;;34.80;53.50;;;;;;6217710;23;20496;-51
2021/08/03 12:14:12;;;;;;;3.88;2.38;;;35.00;54.00;;;;;;6216416;23;20015;-51
2021/08/03 12:16:42;;;;;;;4.40;2.30;;;34.80;54.50;;;;;;6183474;23;20485;-52
2021/08/03 12:19:35;;;;;;;6.45;2.58;;;34.70;55.30;;;;;;6184126;23;20500;-51
2021/08/03 12:22:05;;;;;;;6.55;2.45;;;35.00;54.80;;;;;;6154169;23;20010;-51
2021/08/03 12:24:30;;;;;;;4.75;2.10;;;35.20;54.40;;;;;;6105527;23;20100;-51
2021/08/03 12:27:12;;;;;;;4.10;2.60;;;35.10;53.60;;;;;;6104324;23;20041;-50
2021/08/03 12:29:38;;;;;;;4.10;2.33;;;34.70;53.50;;;;;;6149749;23;20343;-50
2021/08/03 12:32:05;;;;;;;6.10;2.60;;;34.60;53.90;;;;;;6104183;23;20009;-49
2021/08/03 12:34:36;;;;;;;4.93;2.20;;;35.00;54.00;;;;;;6105782;23;20002;-49
2021/08/03 12:37:03;;;;;;;3.90;2.30;;;35.50;55.40;;;;;;6153609;23;20025;-49
2021/08/03 12:39:47;;;;;;;7.10;2.92;;;35.70;53.40;;;;;;6104324;23;20025;-49
2021/08/03 12:42:30;;;;;;;4.32;2.17;;;36.10;53.20;;;;;;6153949;23;20021;-49
2021/08/03 12:44:59;;;;;;;6.05;2.70;;;35.10;52.50;;;;;;6153345;23;20064;-49
2021/08/03 12:47:28;;;;;;;4.07;2.47;;;34.60;52.90;;;;;;6165820;23;20009;-48
2021/08/03 12:50:03;;;;;;;7.57;2.60;;;34.90;53.60;;;;;;6134162;23;20009;-49
2021/08/03 12:52:29;;;;;;;5.50;2.50;;;35.20;53.00;;;;;;6146715;23;20004;-50
2021/08/03 12:55:08;;;;;;;5.28;2.90;;;35.30;53.70;;;;;;6216232;23;20503;-49
2021/08/03 12:57:49;;;;;;;6.47;3.08;;;35.40;54.00;;;;;;6189331;23;20484;-48
2021/08/03 13:00:40;;;;;;;5.78;2.47;;;35.30;53.70;;;;;;6216261;23;20012;-48
2021/08/03 13:03:06;;;;;;;;;;;35.20;53.50;;;;;;6163933;23;20096;-48
2021/08/03 13:05:31;;;;;;;5.00;2.85;;;35.50;52.90;;;;;;6216227;23;19943;-48
2021/08/03 13:07:57;;;;;;;6.78;2.65;;;35.80;54.10;;;;;;6163510;23;20001;-49
2021/08/03 13:10:23;;;;;;;4.32;2.40;;;36.20;52.30;;;;;;6188848;23;20059;-48
2021/08/03 13:12:49;;;;;;;6.45;2.70;;;36.10;52.20;;;;;;6187588;23;20026;-49
2021/08/03 13:15:15;;;;;;;7.05;2.33;;;36.50;52.60;;;;;;6188103;23;20332;-49
2021/08/03 13:17:41;;;;;;;6.72;2.47;;;35.90;52.90;;;;;;6215558;23;20004;-49
2021/08/03 13:20:08;;;;;;;5.43;2.78;;;36.10;52.80;;;;;;6188643;23;20472;-50
2021/08/03 13:22:34;;;;;;;4.80;2.35;;;36.30;52.90;;;;;;6188890;23;20005;-49
2021/08/03 13:25:01;;;;;;;5.05;2.50;;;35.90;52.40;;;;;;6163281;23;20032;-49
2021/08/03 13:27:27;;;;;;;7.38;2.60;;;35.80;53.00;;;;;;6215939;23;20297;-49
2021/08/03 13:29:53;;;;;;;4.97;2.65;;;36.20;52.80;;;;;;6215015;23;20036;-51
2021/08/03 13:32:18;;;;;;;6.32;2.78;;;36.60;52.20;;;;;;6216492;23;20000;-49
2021/08/03 13:34:44;;;;;;;5.80;2.58;;;36.50;53.20;;;;;;6216426;23;20004;-50
2021/08/03 13:37:10;;;;;;;8.45;2.65;;;36.10;52.80;;;;;;6215708;23;20016;-49
2021/08/03 13:39:36;;;;;;;6.93;2.95;;;35.50;52.70;;;;;;6215089;23;20008;-49
2021/08/03 13:42:01;;;;;;;3.05;2.10;;;35.40;53.60;;;;;;6215943;23;20001;-49
2021/08/03 13:44:27;;;;;;;6.20;2.70;;;34.90;58.60;;;;;;6215147;23;20034;-49
2021/08/03 13:46:53;;;;;;;4.07;2.58;;;34.90;54.10;;;;;;6215703;23;20023;-48
2021/08/03 13:49:18;;;;;;;7.70;3.38;;;34.70;60.00;;;;;;6215612;23;20004;-49
2021/08/03 13:51:44;;;;;;;4.72;3.10;;;35.10;57.20;;;;;;6216319;23;20001;-50
2021/08/03 13:54:10;;;;;;;4.75;2.60;;;35.10;58.10;;;;;;6163081;23;20028;-50
2021/08/03 13:56:36;;;;;;;5.28;2.78;;;35.60;55.10;;;;;;6214248;23;20116;-50
2021/08/03 13:59:03;;;;;;;5.57;2.65;;;35.00;53.30;;;;;;6214491;23;20389;-50
2021/08/03 14:01:29;;;;;;;7.30;2.97;;;35.40;55.00;;;;;;6214469;23;20012;-50
2021/08/03 14:03:55;;;;;;;5.22;2.53;;;35.90;55.20;;;;;;6214896;23;20031;-50
2021/08/03 14:06:22;;;;;;;5.05;2.65;;;35.80;56.60;;;;;;6214260;23;20445;-50
2021/08/03 14:08:49;;;;;;;5.50;3.13;;;35.60;56.00;;;;;;6214495;23;20039;-49
2021/08/03 14:11:15;;;;;;;6.20;2.78;;;35.90;56.10;;;;;;6215055;23;20004;-50
2021/08/03 14:13:41;;;;;;;3.83;2.50;;;35.20;56.60;;;;;;6163158;23;20008;-49
2021/08/03 14:16:07;;;;;;;4.90;2.70;;;35.00;55.90;;;;;;6216330;23;20005;-50
2021/08/03 14:18:35;;;;;;;6.97;2.47;;;35.10;56.70;;;;;;6216044;23;20023;-50
2021/08/03 14:21:00;;;;;;;6.85;2.60;;;34.80;56.70;;;;;;6216176;23;20007;-49
2021/08/03 14:23:26;;;;;;;4.72;2.50;;;34.80;57.50;;;;;;6216146;23;20005;-49
2021/08/03 14:25:52;;;;;;;5.40;2.55;;;34.50;53.50;;;;;;6216610;23;20038;-50
2021/08/03 14:28:18;;;;;;;7.15;2.58;;;34.80;53.60;;;;;;6216133;23;20447;-49
2021/08/03 14:30:44;;;;;;;5.93;2.88;;;34.90;53.60;;;;;;6138618;23;20040;-49
2021/08/03 14:33:11;;;;;;;5.32;2.90;;;35.00;52.90;;;;;;6188383;23;20011;-50
2021/08/03 14:35:37;;;;;;;4.47;2.70;;;34.90;53.20;;;;;;6188023;23;20012;-50